ANZ822M NZWN-NZHN
Flight info
| Callsign | ANZ822M |
|---|---|
| Flight time | 1h 3m |
| Altitude | 19000 |
| Route | URGEV2P KAPTI H482 WU H247 TM H325 DROPT KICKE3A |
| Aircraft | AT76/M-V/N |
Departure
| Time | 2026-04-15 09:44 |
|---|---|
| Airport | Wellington International Airport (NZWN) |
Arrival
| Time | 2026-04-15 10:48 |
|---|---|
| Airport | Hamilton International Airport (NZHN) |
| Time | Latitude | Longitude | Altitude | Speed | Heading |
|---|---|---|---|---|---|
| 2026-04-15 09:13 | -41.32904 | 174.81078 | 16 ft | 0 kts | 47° |
| 2026-04-15 09:35 | -41.32908 | 174.81071 | 15 ft | 4 kts | 49° |
| 2026-04-15 09:35 | -41.32924 | 174.81043 | 15 ft | 4 kts | 62° |
| 2026-04-15 09:36 | -41.32934 | 174.81010 | 14 ft | 4 kts | 78° |
| 2026-04-15 09:36 | -41.32937 | 174.80975 | 13 ft | 4 kts | 98° |
| 2026-04-15 09:36 | -41.32930 | 174.80942 | 13 ft | 4 kts | 118° |
| 2026-04-15 09:36 | -41.32915 | 174.80912 | 12 ft | 4 kts | 135° |
| 2026-04-15 09:37 | -41.32894 | 174.80890 | 12 ft | 4 kts | 154° |
| 2026-04-15 09:37 | -41.32872 | 174.80882 | 13 ft | 1 kts | 183° |
| 2026-04-15 09:40 | -41.32911 | 174.80879 | 12 ft | 13 kts | 183° |
| 2026-04-15 09:40 | -41.33020 | 174.80872 | 14 ft | 17 kts | 182° |
| 2026-04-15 09:40 | -41.33096 | 174.80843 | 17 ft | 9 kts | 245° |
| 2026-04-15 09:41 | -41.33148 | 174.80786 | 14 ft | 13 kts | 180° |
| 2026-04-15 09:41 | -41.33265 | 174.80781 | 15 ft | 19 kts | 183° |
| 2026-04-15 09:41 | -41.33380 | 174.80773 | 14 ft | 20 kts | 182° |
| 2026-04-15 09:41 | -41.33498 | 174.80750 | 11 ft | 15 kts | 227° |
| 2026-04-15 09:42 | -41.33523 | 174.80679 | 9 ft | 9 kts | 262° |
| 2026-04-15 09:42 | -41.33515 | 174.80640 | 9 ft | 0 kts | 336° |
| 2026-04-15 09:42 | -41.33502 | 174.80636 | 9 ft | 1 kts | 353° |
| 2026-04-15 09:42 | -41.33480 | 174.80637 | 9 ft | 0 kts | 4° |
| 2026-04-15 09:43 | -41.33477 | 174.80638 | 9 ft | 0 kts | 4° |
| 2026-04-15 09:43 | -41.33473 | 174.80638 | 9 ft | 6 kts | 4° |
| 2026-04-15 09:43 | -41.33242 | 174.80654 | 14 ft | 64 kts | 2° |
| 2026-04-15 09:44 | -41.32617 | 174.80688 | 37 ft | 113 kts | 3° |
| 2026-04-15 09:44 | -41.31817 | 174.80786 | 545 ft | 113 kts | 6° |
| 2026-04-15 09:44 | -41.31061 | 174.80887 | 1167 ft | 108 kts | 0° |
| 2026-04-15 09:44 | -41.30259 | 174.80946 | 1602 ft | 118 kts | 358° |
| 2026-04-15 09:45 | -41.29467 | 174.80964 | 2218 ft | 114 kts | 357° |
| 2026-04-15 09:45 | -41.28658 | 174.81000 | 2665 ft | 114 kts | 356° |
| 2026-04-15 09:45 | -41.27846 | 174.81043 | 2977 ft | 119 kts | 357° |
| 2026-04-15 09:45 | -41.27014 | 174.81339 | 3231 ft | 137 kts | 26° |
| 2026-04-15 09:46 | -41.26301 | 174.82286 | 3536 ft | 145 kts | 41° |
| 2026-04-15 09:46 | -41.25653 | 174.83291 | 3933 ft | 143 kts | 41° |
| 2026-04-15 09:46 | -41.24988 | 174.84317 | 4209 ft | 150 kts | 42° |
| 2026-04-15 09:46 | -41.24289 | 174.85348 | 4562 ft | 149 kts | 38° |
| 2026-04-15 09:47 | -41.23538 | 174.86407 | 4710 ft | 166 kts | 39° |
| 2026-04-15 09:47 | -41.22728 | 174.87565 | 4900 ft | 177 kts | 41° |
| 2026-04-15 09:47 | -41.21856 | 174.88770 | 5192 ft | 185 kts | 40° |
| 2026-04-15 09:47 | -41.20965 | 174.90048 | 5489 ft | 191 kts | 43° |
| 2026-04-15 09:48 | -41.20060 | 174.91374 | 5765 ft | 196 kts | 43° |
| 2026-04-15 09:48 | -41.19131 | 174.92712 | 6080 ft | 196 kts | 40° |
| 2026-04-15 09:48 | -41.18100 | 174.93839 | 6449 ft | 185 kts | 17° |
| 2026-04-15 09:48 | -41.16911 | 174.94373 | 6728 ft | 180 kts | 6° |
| 2026-04-15 09:49 | -41.15673 | 174.94702 | 6977 ft | 184 kts | 2° |
| 2026-04-15 09:49 | -41.14392 | 174.95004 | 7197 ft | 189 kts | 4° |
| 2026-04-15 09:49 | -41.13104 | 174.95395 | 7512 ft | 191 kts | 7° |
| 2026-04-15 09:49 | -41.11811 | 174.95834 | 7822 ft | 192 kts | 7° |
| 2026-04-15 09:50 | -41.10509 | 174.96289 | 8157 ft | 194 kts | 6° |
| 2026-04-15 09:50 | -41.09196 | 174.96738 | 8485 ft | 196 kts | 6° |
| 2026-04-15 09:50 | -41.07864 | 174.97225 | 8780 ft | 199 kts | 4° |
| 2026-04-15 09:50 | -41.06517 | 174.97462 | 9081 ft | 195 kts | 358° |
| 2026-04-15 09:51 | -41.05169 | 174.97598 | 9396 ft | 193 kts | 352° |
| 2026-04-15 09:51 | -41.03828 | 174.97591 | 9658 ft | 193 kts | 350° |
| 2026-04-15 09:51 | -41.02498 | 174.97559 | 9865 ft | 193 kts | 349° |
| 2026-04-15 09:51 | -41.01118 | 174.97560 | 9986 ft | 205 kts | 352° |
| 2026-04-15 09:52 | -40.99990 | 174.97577 | 10194 ft | 205 kts | 352° |
| 2026-04-15 09:52 | -40.98641 | 174.97636 | 10452 ft | 206 kts | 354° |
| 2026-04-15 09:52 | -40.97205 | 174.97741 | 10726 ft | 207 kts | 354° |
| 2026-04-15 09:52 | -40.95760 | 174.97845 | 10987 ft | 208 kts | 353° |
| 2026-04-15 09:53 | -40.94318 | 174.97942 | 11244 ft | 208 kts | 353° |
| 2026-04-15 09:53 | -40.92872 | 174.98025 | 11487 ft | 208 kts | 353° |
| 2026-04-15 09:53 | -40.91424 | 174.98106 | 11738 ft | 209 kts | 352° |
| 2026-04-15 09:53 | -40.89967 | 174.98187 | 12006 ft | 209 kts | 352° |
| 2026-04-15 09:54 | -40.88508 | 174.98269 | 12277 ft | 210 kts | 352° |
| 2026-04-15 09:54 | -40.87041 | 174.98350 | 12539 ft | 211 kts | 352° |
| 2026-04-15 09:54 | -40.85572 | 174.98430 | 12772 ft | 212 kts | 352° |
| 2026-04-15 09:54 | -40.84096 | 174.98507 | 13010 ft | 212 kts | 352° |
| 2026-04-15 09:55 | -40.82615 | 174.98587 | 13242 ft | 213 kts | 352° |
| 2026-04-15 09:55 | -40.81130 | 174.98666 | 13473 ft | 214 kts | 351° |
| 2026-04-15 09:55 | -40.79639 | 174.98746 | 13662 ft | 215 kts | 351° |
| 2026-04-15 09:55 | -40.78135 | 174.98827 | 13843 ft | 217 kts | 351° |
| 2026-04-15 09:56 | -40.76625 | 174.98907 | 14031 ft | 218 kts | 351° |
| 2026-04-15 09:56 | -40.75128 | 174.98988 | 14220 ft | 218 kts | 351° |
| 2026-04-15 09:56 | -40.72075 | 174.99152 | 14581 ft | 221 kts | 351° |
| 2026-04-15 09:57 | -40.70536 | 174.99234 | 14761 ft | 222 kts | 351° |
| 2026-04-15 09:57 | -40.68996 | 174.99316 | 14935 ft | 223 kts | 351° |
| 2026-04-15 09:57 | -40.67437 | 174.99398 | 15113 ft | 223 kts | 351° |
| 2026-04-15 09:57 | -40.65876 | 174.99482 | 15277 ft | 225 kts | 351° |
| 2026-04-15 09:58 | -40.64314 | 174.99563 | 15447 ft | 225 kts | 350° |
| 2026-04-15 09:58 | -40.62734 | 174.99650 | 15618 ft | 226 kts | 351° |
| 2026-04-15 09:58 | -40.61174 | 174.99740 | 15776 ft | 227 kts | 350° |
| 2026-04-15 09:58 | -40.59592 | 174.99821 | 15940 ft | 228 kts | 350° |
| 2026-04-15 09:59 | -40.58003 | 174.99893 | 16089 ft | 229 kts | 350° |
| 2026-04-15 09:59 | -40.56404 | 174.99964 | 16243 ft | 230 kts | 349° |
| 2026-04-15 09:59 | -40.55123 | 175.00022 | 16364 ft | 230 kts | 349° |
| 2026-04-15 09:59 | -40.53518 | 175.00094 | 16514 ft | 231 kts | 349° |
| 2026-04-15 10:00 | -40.51908 | 175.00164 | 16659 ft | 232 kts | 349° |
| 2026-04-15 10:00 | -40.50292 | 175.00237 | 16804 ft | 233 kts | 349° |
| 2026-04-15 10:00 | -40.48670 | 175.00305 | 16943 ft | 233 kts | 349° |
| 2026-04-15 10:00 | -40.47044 | 175.00378 | 17078 ft | 234 kts | 349° |
| 2026-04-15 10:01 | -40.45412 | 175.00449 | 17211 ft | 235 kts | 349° |
| 2026-04-15 10:01 | -40.43776 | 175.00521 | 17348 ft | 236 kts | 349° |
| 2026-04-15 10:01 | -40.42135 | 175.00595 | 17480 ft | 236 kts | 349° |
| 2026-04-15 10:01 | -40.40491 | 175.00667 | 17605 ft | 237 kts | 349° |
| 2026-04-15 10:02 | -40.38842 | 175.00740 | 17725 ft | 238 kts | 349° |
| 2026-04-15 10:02 | -40.37184 | 175.00812 | 17838 ft | 238 kts | 349° |
| 2026-04-15 10:02 | -40.35542 | 175.00883 | 17928 ft | 239 kts | 349° |
| 2026-04-15 10:02 | -40.33874 | 175.00956 | 18033 ft | 240 kts | 349° |
| 2026-04-15 10:03 | -40.32200 | 175.01030 | 18127 ft | 241 kts | 349° |
| 2026-04-15 10:03 | -40.30520 | 175.01104 | 18231 ft | 241 kts | 349° |
| 2026-04-15 10:03 | -40.28840 | 175.01179 | 18330 ft | 242 kts | 349° |
| 2026-04-15 10:03 | -40.27159 | 175.01253 | 18437 ft | 242 kts | 349° |
| 2026-04-15 10:04 | -40.26051 | 175.01303 | 18534 ft | 240 kts | 348° |
| 2026-04-15 10:04 | -40.24370 | 175.01374 | 18619 ft | 243 kts | 348° |
| 2026-04-15 10:04 | -40.22672 | 175.01446 | 18634 ft | 246 kts | 349° |
| 2026-04-15 10:04 | -40.20943 | 175.01522 | 18651 ft | 250 kts | 349° |
| 2026-04-15 10:05 | -40.19194 | 175.01602 | 18660 ft | 254 kts | 349° |
| 2026-04-15 10:05 | -40.16834 | 175.01710 | 18668 ft | 257 kts | 349° |
| 2026-04-15 10:05 | -40.15619 | 175.01766 | 18669 ft | 259 kts | 350° |
| 2026-04-15 10:05 | -40.13809 | 175.01847 | 18654 ft | 261 kts | 349° |
| 2026-04-15 10:06 | -40.11992 | 175.01924 | 18663 ft | 262 kts | 349° |
| 2026-04-15 10:06 | -40.10161 | 175.02004 | 18676 ft | 264 kts | 350° |
| 2026-04-15 10:06 | -40.08320 | 175.02087 | 18668 ft | 265 kts | 350° |
| 2026-04-15 10:06 | -40.06470 | 175.02170 | 18677 ft | 267 kts | 350° |
| 2026-04-15 10:07 | -40.04613 | 175.02253 | 18674 ft | 268 kts | 350° |
| 2026-04-15 10:07 | -40.02746 | 175.02334 | 18681 ft | 268 kts | 350° |
| 2026-04-15 10:07 | -40.00899 | 175.02416 | 18685 ft | 269 kts | 350° |
| 2026-04-15 10:07 | -39.99402 | 175.02484 | 18685 ft | 270 kts | 350° |
| 2026-04-15 10:08 | -39.97526 | 175.02567 | 18685 ft | 270 kts | 350° |
| 2026-04-15 10:08 | -39.95652 | 175.02651 | 18685 ft | 270 kts | 351° |
| 2026-04-15 10:08 | -39.93755 | 175.03004 | 18682 ft | 280 kts | 1° |
| 2026-04-15 10:08 | -39.91845 | 175.03590 | 18675 ft | 283 kts | 4° |
| 2026-04-15 10:09 | -39.89938 | 175.04213 | 18681 ft | 283 kts | 4° |
| 2026-04-15 10:09 | -39.88029 | 175.04823 | 18694 ft | 282 kts | 2° |
| 2026-04-15 10:09 | -39.86114 | 175.05383 | 18690 ft | 282 kts | 1° |
| 2026-04-15 10:09 | -39.84193 | 175.05909 | 18689 ft | 282 kts | 1° |
| 2026-04-15 10:10 | -39.82272 | 175.06443 | 18693 ft | 283 kts | 1° |
| 2026-04-15 10:10 | -39.80349 | 175.06982 | 18690 ft | 283 kts | 1° |
| 2026-04-15 10:10 | -39.78421 | 175.07521 | 18693 ft | 283 kts | 1° |
| 2026-04-15 10:10 | -39.76495 | 175.08054 | 18693 ft | 283 kts | 1° |
| 2026-04-15 10:11 | -39.74565 | 175.08596 | 18698 ft | 284 kts | 1° |
| 2026-04-15 10:11 | -39.72628 | 175.09134 | 18704 ft | 284 kts | 1° |
| 2026-04-15 10:11 | -39.70692 | 175.09675 | 18698 ft | 284 kts | 1° |
| 2026-04-15 10:11 | -39.68783 | 175.10210 | 18690 ft | 284 kts | 1° |
| 2026-04-15 10:12 | -39.66851 | 175.10744 | 18695 ft | 285 kts | 1° |
| 2026-04-15 10:12 | -39.64909 | 175.11283 | 18705 ft | 285 kts | 1° |
| 2026-04-15 10:12 | -39.62965 | 175.11816 | 18705 ft | 285 kts | 1° |
| 2026-04-15 10:12 | -39.61021 | 175.12341 | 18706 ft | 285 kts | 1° |
| 2026-04-15 10:13 | -39.59075 | 175.12869 | 18699 ft | 285 kts | 1° |
| 2026-04-15 10:13 | -39.57135 | 175.13407 | 18706 ft | 285 kts | 1° |
| 2026-04-15 10:13 | -39.55190 | 175.13957 | 18715 ft | 286 kts | 1° |
| 2026-04-15 10:13 | -39.53244 | 175.14506 | 18709 ft | 286 kts | 1° |
| 2026-04-15 10:14 | -39.51297 | 175.15045 | 18708 ft | 285 kts | 1° |
| 2026-04-15 10:14 | -39.49356 | 175.15587 | 18717 ft | 286 kts | 1° |
| 2026-04-15 10:14 | -39.47433 | 175.16118 | 18695 ft | 285 kts | 1° |
| 2026-04-15 10:14 | -39.45490 | 175.16640 | 18697 ft | 284 kts | 1° |
| 2026-04-15 10:15 | -39.43559 | 175.17159 | 18714 ft | 284 kts | 1° |
| 2026-04-15 10:15 | -39.41624 | 175.17691 | 18720 ft | 284 kts | 1° |
| 2026-04-15 10:15 | -39.39692 | 175.18225 | 18719 ft | 285 kts | 1° |
| 2026-04-15 10:15 | -39.37749 | 175.18759 | 18712 ft | 285 kts | 1° |
| 2026-04-15 10:16 | -39.35809 | 175.19297 | 18724 ft | 285 kts | 1° |
| 2026-04-15 10:16 | -39.33867 | 175.19833 | 18726 ft | 285 kts | 1° |
| 2026-04-15 10:16 | -39.31926 | 175.20365 | 18725 ft | 285 kts | 1° |
| 2026-04-15 10:16 | -39.29980 | 175.20904 | 18723 ft | 286 kts | 1° |
| 2026-04-15 10:17 | -39.28033 | 175.21438 | 18727 ft | 286 kts | 1° |
| 2026-04-15 10:17 | -39.26081 | 175.21973 | 18727 ft | 286 kts | 1° |
| 2026-04-15 10:17 | -39.24156 | 175.22504 | 18721 ft | 286 kts | 2° |
| 2026-04-15 10:17 | -39.22210 | 175.23042 | 18724 ft | 286 kts | 1° |
| 2026-04-15 10:18 | -39.20264 | 175.23575 | 18728 ft | 286 kts | 1° |
| 2026-04-15 10:18 | -39.18316 | 175.24108 | 18730 ft | 286 kts | 1° |
| 2026-04-15 10:18 | -39.16362 | 175.24644 | 18732 ft | 286 kts | 1° |
| 2026-04-15 10:18 | -39.14410 | 175.25178 | 18727 ft | 286 kts | 1° |
| 2026-04-15 10:19 | -39.12463 | 175.25719 | 18735 ft | 286 kts | 1° |
| 2026-04-15 10:19 | -39.10512 | 175.26254 | 18735 ft | 286 kts | 1° |
| 2026-04-15 10:19 | -39.08565 | 175.26785 | 18725 ft | 286 kts | 1° |
| 2026-04-15 10:19 | -39.06618 | 175.27317 | 18734 ft | 286 kts | 1° |
| 2026-04-15 10:20 | -39.04689 | 175.27840 | 18726 ft | 286 kts | 1° |
| 2026-04-15 10:20 | -39.02734 | 175.28372 | 18700 ft | 286 kts | 1° |
| 2026-04-15 10:20 | -39.00785 | 175.28898 | 18721 ft | 286 kts | 1° |
| 2026-04-15 10:20 | -38.99272 | 175.29307 | 18719 ft | 285 kts | 1° |
| 2026-04-15 10:21 | -38.97329 | 175.29839 | 18729 ft | 285 kts | 2° |
| 2026-04-15 10:21 | -38.95391 | 175.30375 | 18734 ft | 285 kts | 2° |
| 2026-04-15 10:21 | -38.93453 | 175.30911 | 18733 ft | 285 kts | 2° |
| 2026-04-15 10:21 | -38.91516 | 175.31346 | 18735 ft | 279 kts | 355° |
| 2026-04-15 10:22 | -38.89601 | 175.31496 | 18736 ft | 272 kts | 349° |
| 2026-04-15 10:22 | -38.87714 | 175.31497 | 18733 ft | 271 kts | 348° |
| 2026-04-15 10:22 | -38.85843 | 175.31498 | 18729 ft | 272 kts | 348° |
| 2026-04-15 10:22 | -38.83953 | 175.31509 | 18726 ft | 272 kts | 349° |
| 2026-04-15 10:23 | -38.82054 | 175.31525 | 18733 ft | 273 kts | 349° |
| 2026-04-15 10:23 | -38.80152 | 175.31561 | 18734 ft | 272 kts | 349° |
| 2026-04-15 10:23 | -38.78257 | 175.31621 | 18721 ft | 273 kts | 350° |
| 2026-04-15 10:23 | -38.76354 | 175.31683 | 18731 ft | 273 kts | 350° |
| 2026-04-15 10:24 | -38.74456 | 175.31734 | 18737 ft | 273 kts | 349° |
| 2026-04-15 10:24 | -38.72556 | 175.31781 | 18741 ft | 273 kts | 349° |
| 2026-04-15 10:24 | -38.70657 | 175.31821 | 18743 ft | 273 kts | 349° |
| 2026-04-15 10:24 | -38.68761 | 175.31857 | 18730 ft | 273 kts | 349° |
| 2026-04-15 10:25 | -38.66858 | 175.31897 | 18734 ft | 273 kts | 349° |
| 2026-04-15 10:25 | -38.64956 | 175.31930 | 18745 ft | 274 kts | 349° |
| 2026-04-15 10:25 | -38.63048 | 175.31963 | 18745 ft | 274 kts | 349° |
| 2026-04-15 10:25 | -38.61138 | 175.32006 | 18743 ft | 274 kts | 349° |
| 2026-04-15 10:26 | -38.59228 | 175.32054 | 18747 ft | 274 kts | 349° |
| 2026-04-15 10:26 | -38.57320 | 175.32099 | 18748 ft | 274 kts | 349° |
| 2026-04-15 10:26 | -38.55408 | 175.32139 | 18721 ft | 274 kts | 350° |
| 2026-04-15 10:26 | -38.53501 | 175.32189 | 18727 ft | 274 kts | 349° |
| 2026-04-15 10:27 | -38.51620 | 175.32232 | 18744 ft | 274 kts | 349° |
| 2026-04-15 10:27 | -38.49712 | 175.32274 | 18748 ft | 274 kts | 349° |
| 2026-04-15 10:27 | -38.47807 | 175.32316 | 18743 ft | 274 kts | 349° |
| 2026-04-15 10:27 | -38.45901 | 175.32360 | 18748 ft | 274 kts | 350° |
| 2026-04-15 10:28 | -38.43996 | 175.32405 | 18751 ft | 274 kts | 350° |
| 2026-04-15 10:28 | -38.42089 | 175.32448 | 18744 ft | 274 kts | 350° |
| 2026-04-15 10:28 | -38.40180 | 175.32493 | 18746 ft | 274 kts | 350° |
| 2026-04-15 10:28 | -38.38274 | 175.32538 | 18744 ft | 274 kts | 349° |
| 2026-04-15 10:29 | -38.36362 | 175.32581 | 18724 ft | 274 kts | 350° |
| 2026-04-15 10:29 | -38.34428 | 175.32626 | 18384 ft | 278 kts | 351° |
| 2026-04-15 10:29 | -38.32502 | 175.32710 | 18057 ft | 274 kts | 352° |
| 2026-04-15 10:29 | -38.30610 | 175.32782 | 17654 ft | 271 kts | 351° |
| 2026-04-15 10:30 | -38.28741 | 175.32844 | 17294 ft | 266 kts | 350° |
| 2026-04-15 10:30 | -38.26891 | 175.32868 | 16922 ft | 264 kts | 349° |
| 2026-04-15 10:30 | -38.25086 | 175.32882 | 16546 ft | 262 kts | 350° |
| 2026-04-15 10:30 | -38.23267 | 175.32911 | 16207 ft | 260 kts | 350° |
| 2026-04-15 10:31 | -38.21461 | 175.32949 | 15859 ft | 259 kts | 352° |
| 2026-04-15 10:31 | -38.19650 | 175.33133 | 15514 ft | 261 kts | 356° |
| 2026-04-15 10:31 | -38.17846 | 175.33407 | 15173 ft | 261 kts | 357° |
| 2026-04-15 10:31 | -38.16047 | 175.33684 | 14837 ft | 260 kts | 357° |
| 2026-04-15 10:32 | -38.14258 | 175.33943 | 14506 ft | 258 kts | 356° |
| 2026-04-15 10:32 | -38.12475 | 175.34172 | 14175 ft | 256 kts | 356° |
| 2026-04-15 10:32 | -38.10710 | 175.34389 | 13857 ft | 254 kts | 356° |
| 2026-04-15 10:32 | -38.08953 | 175.34605 | 13521 ft | 253 kts | 356° |
| 2026-04-15 10:33 | -38.07203 | 175.34822 | 13174 ft | 251 kts | 356° |
| 2026-04-15 10:33 | -38.05525 | 175.35044 | 12841 ft | 233 kts | 358° |
| 2026-04-15 10:33 | -38.03977 | 175.35501 | 12527 ft | 224 kts | 7° |
| 2026-04-15 10:33 | -38.02542 | 175.36063 | 12231 ft | 214 kts | 8° |
| 2026-04-15 10:34 | -38.01120 | 175.36628 | 11943 ft | 214 kts | 8° |
| 2026-04-15 10:34 | -37.99992 | 175.37070 | 11722 ft | 214 kts | 8° |
| 2026-04-15 10:34 | -37.98611 | 175.37607 | 11452 ft | 212 kts | 7° |
| 2026-04-15 10:34 | -37.97203 | 175.38134 | 11181 ft | 210 kts | 7° |
| 2026-04-15 10:35 | -37.95802 | 175.38648 | 10908 ft | 209 kts | 7° |
| 2026-04-15 10:35 | -37.94408 | 175.39158 | 10640 ft | 208 kts | 7° |
| 2026-04-15 10:35 | -37.93022 | 175.39654 | 10375 ft | 206 kts | 7° |
| 2026-04-15 10:35 | -37.91643 | 175.40140 | 10117 ft | 205 kts | 6° |
| 2026-04-15 10:36 | -37.90269 | 175.40621 | 9864 ft | 204 kts | 7° |
| 2026-04-15 10:36 | -37.88904 | 175.41105 | 9600 ft | 203 kts | 7° |
| 2026-04-15 10:36 | -37.87549 | 175.41582 | 9331 ft | 202 kts | 7° |
| 2026-04-15 10:36 | -37.86197 | 175.42061 | 9029 ft | 202 kts | 7° |
| 2026-04-15 10:37 | -37.84832 | 175.42547 | 8759 ft | 210 kts | 8° |
| 2026-04-15 10:37 | -37.83383 | 175.43069 | 8474 ft | 218 kts | 8° |
| 2026-04-15 10:37 | -37.81904 | 175.43605 | 8181 ft | 224 kts | 8° |
| 2026-04-15 10:37 | -37.80391 | 175.44156 | 7889 ft | 229 kts | 8° |
| 2026-04-15 10:38 | -37.78846 | 175.44711 | 7586 ft | 233 kts | 7° |
| 2026-04-15 10:38 | -37.77290 | 175.45267 | 7283 ft | 236 kts | 8° |
| 2026-04-15 10:38 | -37.75703 | 175.45837 | 6979 ft | 238 kts | 8° |
| 2026-04-15 10:38 | -37.74099 | 175.46411 | 6675 ft | 240 kts | 8° |
| 2026-04-15 10:39 | -37.72486 | 175.47006 | 6368 ft | 243 kts | 8° |
| 2026-04-15 10:39 | -37.70862 | 175.47596 | 6044 ft | 244 kts | 8° |
| 2026-04-15 10:39 | -37.69226 | 175.48042 | 5675 ft | 233 kts | 351° |
| 2026-04-15 10:39 | -37.67788 | 175.47453 | 5340 ft | 209 kts | 313° |
| 2026-04-15 10:40 | -37.66979 | 175.46069 | 5063 ft | 191 kts | 290° |
| 2026-04-15 10:40 | -37.66459 | 175.44554 | 4812 ft | 186 kts | 283° |
| 2026-04-15 10:40 | -37.66073 | 175.43015 | 4544 ft | 178 kts | 279° |
| 2026-04-15 10:40 | -37.66111 | 175.41622 | 4116 ft | 155 kts | 240° |
| 2026-04-15 10:41 | -37.66933 | 175.40792 | 3670 ft | 152 kts | 216° |
| 2026-04-15 10:41 | -37.67873 | 175.40180 | 3233 ft | 152 kts | 211° |
| 2026-04-15 10:41 | -37.68802 | 175.39719 | 3092 ft | 137 kts | 207° |
| 2026-04-15 10:41 | -37.69673 | 175.39374 | 3017 ft | 126 kts | 205° |
| 2026-04-15 10:42 | -37.70478 | 175.39095 | 2967 ft | 116 kts | 205° |
| 2026-04-15 10:42 | -37.71211 | 175.38861 | 2955 ft | 99 kts | 206° |
| 2026-04-15 10:42 | -37.71839 | 175.38673 | 2931 ft | 89 kts | 206° |
| 2026-04-15 10:42 | -37.72441 | 175.38469 | 2935 ft | 97 kts | 206° |
| 2026-04-15 10:43 | -37.73130 | 175.38222 | 2951 ft | 107 kts | 206° |
| 2026-04-15 10:43 | -37.73881 | 175.37931 | 2776 ft | 112 kts | 207° |
| 2026-04-15 10:43 | -37.74588 | 175.37661 | 2561 ft | 101 kts | 208° |
| 2026-04-15 10:43 | -37.75224 | 175.37432 | 2380 ft | 88 kts | 207° |
| 2026-04-15 10:44 | -37.75803 | 175.37235 | 2334 ft | 88 kts | 206° |
| 2026-04-15 10:44 | -37.76426 | 175.37040 | 2211 ft | 99 kts | 201° |
| 2026-04-15 10:44 | -37.77136 | 175.36883 | 2063 ft | 105 kts | 201° |
| 2026-04-15 10:44 | -37.77854 | 175.36669 | 1893 ft | 107 kts | 207° |
| 2026-04-15 10:45 | -37.78556 | 175.36359 | 1759 ft | 108 kts | 208° |
| 2026-04-15 10:45 | -37.79254 | 175.36044 | 1598 ft | 104 kts | 210° |
| 2026-04-15 10:45 | -37.79921 | 175.35751 | 1444 ft | 102 kts | 208° |
| 2026-04-15 10:45 | -37.80604 | 175.35449 | 1287 ft | 103 kts | 207° |
| 2026-04-15 10:46 | -37.81283 | 175.35188 | 1141 ft | 103 kts | 207° |
| 2026-04-15 10:46 | -37.81967 | 175.34922 | 963 ft | 102 kts | 205° |
| 2026-04-15 10:46 | -37.82649 | 175.34657 | 823 ft | 103 kts | 200° |
| 2026-04-15 10:46 | -37.83326 | 175.34381 | 668 ft | 104 kts | 208° |
| 2026-04-15 10:47 | -37.84039 | 175.34162 | 563 ft | 108 kts | 198° |
| 2026-04-15 10:47 | -37.84775 | 175.33929 | 387 ft | 108 kts | 199° |
| 2026-04-15 10:47 | -37.85490 | 175.33650 | 229 ft | 106 kts | 202° |
| 2026-04-15 10:47 | -37.86169 | 175.33399 | 164 ft | 92 kts | 195° |
| 2026-04-15 10:48 | -37.86445 | 175.33302 | 164 ft | 17 kts | 198° |
| 2026-04-15 10:48 | -37.86524 | 175.33292 | 163 ft | 8 kts | 140° |
| 2026-04-15 10:48 | -37.86550 | 175.33387 | 158 ft | 11 kts | 106° |
| 2026-04-15 10:48 | -37.86560 | 175.33434 | 157 ft | 3 kts | 106° |
| 2026-04-15 10:49 | -37.86561 | 175.33439 | 157 ft | 0 kts | 106° |
| 2026-04-15 10:50 | -37.86567 | 175.33464 | 156 ft | 7 kts | 106° |
| 2026-04-15 10:50 | -37.86574 | 175.33483 | 153 ft | 3 kts | 117° |
| 2026-04-15 10:50 | -37.86587 | 175.33497 | 153 ft | 5 kts | 144° |
| 2026-04-15 10:50 | -37.86627 | 175.33514 | 156 ft | 6 kts | 147° |
| 2026-04-15 10:51 | -37.86635 | 175.33532 | 156 ft | 2 kts | 106° |
| 2026-04-15 10:51 | -37.86636 | 175.33536 | 156 ft | 0 kts | 104° |
| 2026-04-15 10:51 | -37.86636 | 175.33539 | 156 ft | 2 kts | 104° |
| 2026-04-15 10:51 | -37.86643 | 175.33549 | 156 ft | 0 kts | 150° |
| 2026-04-15 10:52 | -37.86649 | 175.33549 | 157 ft | 1 kts | 182° |
| 2026-04-15 10:52 | -37.86653 | 175.33548 | 155 ft | 0 kts | 193° |
| 2026-04-15 10:52 | -37.86653 | 175.33547 | 155 ft | 0 kts | 194° |